Pagina principale
METAR-TAF:

METAR-TAF

Aeroporti :

Aeroporto di Roma-Fiumicino

Roma-Fiumicino, Italia

latitudine: 41-48N, longitudine: 012-14E, altezza: 2 m

Osservazione

Il bollettino è stato emesso 36 minuti fa, alle 22:20 UTC
Vento 2 kt da direzioni variabili
Temperature 20°C
Umidità 94%
Pressione 1014 hPa
Visibilità 10 km o più
nessuna nube inferiore a 1500 m e nessun cumulonembo

METAR: LIRF 152220Z VRB02KT CAVOK 20/19 Q1014 NOSIG

Ora: 00:56 (22:56 UTC)

Previsione

Il bollettino è stato emesso 5 ore e 56 minuti fa, alle 17:00 UTC
Previsione valida dal 15 alle 18 UTC al 16 alle 24 UTC
Vento 5 kt da direzioni variabili
Visibilità 10 km o più
Nubi sparse ad un'altezza di 3000 ft
Evoluzione graduale
dal 16 alle 08 UTC al 15 alle 10 UTC
Vento 12 kt da ovest

TAF: LIRF 151700Z 1518/1624 VRB05KT 9999 SCT030 BECMG 1608/1510 26012KT

Osservazioni e previsioni meteorologiche di più di 4000 aeroporti (messaggi METAR e TAF).

Le stazioni disponibili sono rappresentate dai dischi gialli e rossi sulla carta.

Puntare il mouse per vedere il nome della stazione.

Clicca sopra per visualizzare le osservazioni e previsioni meteorologiche.

Per cambiare la mappa : fare clic sui pulsanti verdi con una croce nera per ingrandire, il pulsante verde con un trattino per diminuire, o sulla freccia verde per le mappe adiacenti.


METAR-TAF: